Tiempo atmosférico en la estación meteorológica de Villena, Alacant/Alicante (486 m.)



Fecha
DESCASC
Temp. máxima en grados centígrados (hora)
DESCASC
Temp. mínima en grados centígrados (hora)
DESCASC
Temp. media en grados centígrados
DESCASC
Racha de viento máxima en m/sg (hora)
DESCASC
Velocidad máxima media en intervalos de 10 minutos(hora)
DESCASC
Precipitaciones diarias en mm
DESCASC
Precipitaciones de 00:00 a 06:00 en mm
DESCASC
Precipitaciones de 06:00 a 12:00 en mm
DESCASC
Precipitaciones de 12:00 a 18:00 en mm
DESCASC
Precipitaciones de 18:00 a 24:00 en mm
DESCASC
11-12-2019 16.5 (13:50) 0.3 (07:50) 8.4 13.89 (14:30) 8.89 (15:50) 0 0 0 0 0
10-12-2019 16.8 (16:00) 3.5 (23:59) 10.1 9.72 (03:40) 7.22 (03:40) 0 0 0 0 0
09-12-2019 16.2 (15:50) 7.1 (07:00) 11.7 12.78 (14:40) 8.33 (14:50) 0 0 0 0 0
08-12-2019 16.5 (15:10) 1.3 (00:00) 8.9 10 (20:30) 6.67 (20:30) 0 0 0 0 0
07-12-2019 15.7 (15:30) 2.2 (00:00) 8.9 3.89 (06:30) 3.06 (06:30) 0 0 0 0 0
06-12-2019 13.5 (13:00) 3.8 (00:00) 8.6 7.5 (12:40) 5 (12:40) 0 0 0 0 0
05-12-2019 13 (12:10) 5.8 (00:00) 9.4 7.22 (19:20) 4.72 (16:50) 0.8 0.6 0.2 0 0
04-12-2019 9.9 (03:20) 6.6 (00:00) 8.2 15.83 (03:20) 8.06 (03:40) 4.6 2.6 2 0 0
03-12-2019 9.9 (10:10) 6.4 (00:00) 8.1 13.06 (17:20) 8.33 (17:40) 4.6 3 0 0.8 0.8
02-12-2019 11.1 (16:00) 6.2 (00:00) 8.7 12.5 (10:50) 7.22 (10:50) 7.8 1 0.2 0 6.6
01-12-2019 16.9 (14:20) 2.3 (00:00) 9.6 7.78 (12:10) 5.28 (11:40) 0 0 0 0 0
30-11-2019 20.7 (15:10) 4.7 (00:00) 12.7 6.94 (21:50) 4.44 (17:30) 0 0 0 0 0
29-11-2019 17.3 (15:10) 8.5 (00:00) 12.9 10.83 (10:40) 7.22 (10:40) 0 0 0 0 0
28-11-2019 15.8 (13:10) 5.9 (00:00) 10.9 10.56 (13:30) 7.22 (13:30) 0 0 0 0 0
27-11-2019 18.3 (14:00) 4.4 (00:00) 11.3 13.06 (17:10) 8.61 (17:00) 0 0 0 0 0
26-11-2019 18.7 (14:30) 6.7 (00:00) 12.7 11.11 (14:40) 6.94 (11:50) 0 0 0 0 0
25-11-2019 18 (15:00) 7.8 (00:00) 12.9 13.33 (02:50) 8.33 (02:50) 0 0 0 0 0
24-11-2019 13.3 (13:40) 6.2 (00:00) 9.8 14.72 (03:50) 10 (03:50) 0 0 0 0 0
23-11-2019 12.7 (16:10) 8.4 (00:00) 10.5 20 (11:40) 12.78 (12:40) 0 0 0 0 0
22-11-2019 12.2 (13:40) 2.7 (00:00) 7.4 11.94 (15:00) 8.89 (14:50) 4.6 0 0.2 1.2 3.2
21-11-2019 12.9 (16:20) 0 (00:00) 6.4 3.89 (17:20) 2.78 (17:20) 0.8 0 0 0 0.8
20-11-2019 14.1 (14:20) -1.8 (-00:0) 6.2 6.39 (15:50) 5 (14:40) 0.6 0 0 0 0.6
19-11-2019 12.4 (15:30) -1.4 (-00:0) 5.5 10 (12:20) 6.39 (12:20) 0 0 0 0 0
18-11-2019 12.5 (14:20) 1.4 (00:00) 6.9 8.33 (14:50) 5.56 (14:50) 5.4 5.4 0 0 0
17-11-2019 15.6 (15:10) 0.3 (00:00) 8 11.11 (11:20) 6.94 (10:10) 3.2 0 0 0 3.2
16-11-2019 12.4 (14:30) -2 (-00:0) 5.2 10.56 (22:00) 6.11 (15:40) 0 0 0 0 0
15-11-2019 12 (15:30) 3.9 (00:00) 8 12.78 (12:00) 8.33 (12:40) 0 0 0 0 0

Gráficas

Temp. máximas Temp. mínimas Temp. medias Precipitaciones Rachas de viento máximas Velocidades máximas media en intervalos de 10 minutos

Datos horarios

Fecha y hora oficial Temperatura (ºC) Velocidad del viento (km/h) Dirección del viento Racha (km/h) Dirección de racha Precipitación (mm) Presión (hPa) Tendencia (hPa) Humedad (%)
2019-12-14 23:00:00 7.6 8 Oeste 18 Noroeste 0 -- -- 77
2019-12-14 22:00:00 8.4 10 Noroeste 21 Noroeste 0 -- -- 75
2019-12-14 21:00:00 8.9 15 Noroeste 22 Noroeste 0 -- -- 73
2019-12-14 20:00:00 9.2 15 Noroeste 24 Noroeste 0 -- -- 73
2019-12-14 19:00:00 9.5 8 Noroeste 24 Norte 0 -- -- 72
2019-12-14 18:00:00 10.8 15 Noroeste 28 Noroeste 0 -- -- 68
2019-12-14 17:00:00 12.7 12 Norte 32 Noroeste 0 -- -- 64
2019-12-14 16:00:00 13.5 19 Norte 33 Noroeste 0 -- -- 62
2019-12-14 15:00:00 14 23 Noroeste 38 Noroeste 0 -- -- 62
2019-12-14 14:00:00 14.3 22 Noroeste 41 Noroeste 0 -- -- 63
2019-12-14 13:00:00 13.7 29 Noroeste 45 Noroeste 0 -- -- 64
2019-12-14 12:00:00 13.6 31 Noroeste 50 Noroeste 0 -- -- 66
2019-12-14 11:00:00 13.4 34 Noroeste 54 Noroeste 0 -- -- 66
2019-12-14 10:00:00 13.3 27 Noroeste 39 Noroeste 0 -- -- 66
2019-12-14 09:00:00 11.7 9 Noroeste 17 Noroeste 0 -- -- 71
2019-12-14 08:00:00 10.6 10 Noroeste 38 Noroeste 0 -- -- 73
2019-12-14 07:00:00 11 15 Noroeste 32 Noroeste 0 -- -- 71
2019-12-14 06:00:00 11.4 22 Noroeste 41 Noroeste 0 -- -- 69
2019-12-14 05:00:00 11.6 17 Noroeste 45 Oeste 0 -- -- 69
2019-12-14 04:00:00 11.5 21 Noroeste 47 Oeste 0 -- -- 71
2019-12-14 03:00:00 12.2 35 Noroeste 58 Noroeste 0 -- -- 70
2019-12-14 02:00:00 12.3 37 Oeste 56 Noroeste 0 -- -- 70
2019-12-14 01:00:00 12.8 32 Noroeste 46 Noroeste 0 -- -- 69
2019-12-14 00:00:00 13.1 5 Sudeste 36 Noroeste 0 -- -- 68
2019-12-13 23:00:00 13.1 8 Noroeste 31 Noroeste 0 -- -- 67
2019-12-13 22:00:00 13.8 14 Noroeste 49 Oeste 0 -- -- 65
2019-12-13 21:00:00 14 17 Noroeste 38 Noroeste 0 -- -- 65
2019-12-13 20:00:00 13.8 16 Noroeste 36 Noroeste 0 -- -- 65
2019-12-13 19:00:00 14 22 Noroeste 49 Noroeste 0 -- -- 65
2019-12-13 18:00:00 14.5 16 Noroeste 47 Noroeste 0 -- -- 64
2019-12-13 17:00:00 15.6 28 Noroeste 50 Oeste 0 -- -- 59
2019-12-13 16:00:00 15.9 23 Noroeste 62 Noroeste 0 -- -- 58
2019-12-13 15:00:00 16 39 Noroeste 72 Noroeste 0 -- -- 57
2019-12-13 14:00:00 15.2 42 Noroeste 63 Noroeste 0 -- -- 59
2019-12-13 13:00:00 14.8 48 Noroeste 67 Noroeste 0 -- -- 60
2019-12-13 12:00:00 14.7 37 Noroeste 59 Noroeste 0 -- -- 62
2019-12-13 11:00:00 14.1 28 Noroeste 48 Noroeste 0 -- -- 67
2019-12-13 10:00:00 13.6 29 Noroeste 49 Noroeste 0 -- -- 69
2019-12-13 09:00:00 13.5 27 Noroeste 55 Oeste 0 -- -- 71
2019-12-13 08:00:00 13.6 38 Noroeste 57 Noroeste 0 -- -- 72
2019-12-13 07:00:00 13.3 37 Noroeste 53 Noroeste 0 -- -- 72
2019-12-13 06:00:00 12.6 27 Noroeste 43 Noroeste 0 -- -- 73
2019-12-13 05:00:00 12 31 Noroeste 41 Noroeste 0 -- -- 73
2019-12-13 04:00:00 11.7 27 Noroeste 43 Oeste 0 -- -- 73
2019-12-13 03:00:00 11.9 28 Noroeste 54 Oeste 0 -- -- 71
2019-12-13 02:00:00 12 33 Oeste 51 Oeste 0 -- -- 68
2019-12-13 01:00:00 11.7 27 Noroeste 42 Noroeste 0 -- -- 68
2019-12-13 00:00:00 11.3 9 Noroeste 31 Noroeste 0 -- -- 67
2019-12-12 23:00:00 11.4 21 Noroeste 36 Oeste 0 -- -- 67
2019-12-12 22:00:00 10.6 20 Noroeste 38 Oeste 0 -- -- 68
2019-12-12 21:00:00 10 15 Oeste 33 Noroeste 0 -- -- 66
2019-12-12 20:00:00 10 19 Noroeste 40 Noroeste 0 -- -- 66
2019-12-12 19:00:00 10 29 Noroeste 50 Oeste 0 -- -- 66
2019-12-12 18:00:00 9.8 31 Noroeste 58 Oeste 0 -- -- 66
2019-12-12 17:00:00 10.2 34 Noroeste 53 Noroeste 0 -- -- 65
2019-12-12 16:00:00 9.9 16 Noroeste 48 Noroeste 0 -- -- 63
2019-12-12 15:00:00 10.6 30 Noroeste 46 Noroeste 0 -- -- 59
2019-12-12 14:00:00 10.8 23 Noroeste 40 Noroeste 0 -- -- 59
2019-12-12 13:00:00 11.3 21 Noroeste 33 Oeste 0 -- -- 59
2019-12-12 12:00:00 11.1 24 Oeste 38 Oeste 0 -- -- 61
2019-12-12 11:00:00 9.4 13 Noroeste 38 Norte 0 -- -- 69
2019-12-12 10:00:00 7.8 16 Noroeste 31 Norte 0 -- -- 75
2019-12-12 09:00:00 6.9 14 Noroeste 29 Noroeste 0 -- -- 76
2019-12-12 08:00:00 6.8 14 Noroeste 28 Noroeste 0 -- -- 77
2019-12-12 07:00:00 5.5 7 Oeste 15 Oeste 0 -- -- 80
2019-12-12 06:00:00 5.5 6 Sudoeste 19 Oeste 0 -- -- 79
2019-12-12 05:00:00 5.6 14 Oeste 25 Oeste 0 -- -- 76
2019-12-12 04:00:00 4.1 3 Norte 21 Oeste 0 -- -- 78
2019-12-12 03:00:00 5.2 13 Oeste 26 Noroeste 0 -- -- 77
2019-12-12 02:00:00 5.9 19 Noroeste 25 Oeste 0 -- -- 75
2019-12-12 01:00:00 6.1 12 Noroeste 35 Oeste 0 -- -- 75
2019-12-12 00:00:00 7.5 25 Oeste 38 Oeste 0 -- -- 74
2019-12-11 23:00:00 7.3 13 Oeste 33 Noroeste 0 -- -- 72
2019-12-11 22:00:00 7.1 18 Noroeste 34 Noroeste 0 -- -- 75
2019-12-11 21:00:00 7.2 8 Noroeste 37 Noroeste 0 -- -- 75
2019-12-11 20:00:00 8.2 22 Noroeste 33 Noroeste 0 -- -- 74
2019-12-11 19:00:00 8.6 21 Noroeste 32 Noroeste 0 -- -- 73
2019-12-11 18:00:00 9.5 24 Noroeste 48 Noroeste 0 -- -- 70
2019-12-11 17:00:00 12.1 30 Noroeste 43 Noroeste 0 -- -- 61
2019-12-11 16:00:00 14.4 30 Noroeste 46 Noroeste 0 -- -- 58
2019-12-11 15:00:00 14.2 27 Noroeste 50 Noroeste 0 -- -- 48
2019-12-11 14:00:00 16 28 Noroeste 46 Noroeste 0 -- -- 43
2019-12-11 13:00:00 16.1 24 Noroeste 40 Noroeste 0 -- -- 38
2019-12-11 12:00:00 14.7 16 Noroeste 26 Noroeste 0 -- -- 41
2019-12-11 11:00:00 11.5 4 Noroeste 8 Oeste 0 -- -- 54
2019-12-11 10:00:00 6.3 4 Norte 15 Norte 0 -- -- 74
2019-12-11 09:00:00 1.7 11 Norte 16 Norte 0 -- -- 82
2019-12-11 08:00:00 0.5 8 Norte 15 Norte 0 -- -- 87
2019-12-11 07:00:00 0.4 10 Norte 15 Noroeste 0 -- -- 86
2019-12-11 06:00:00 1.3 12 Noroeste 23 Noroeste 0 -- -- 84
2019-12-11 05:00:00 1.6 10 Norte 18 Noroeste 0 -- -- 83
2019-12-11 04:00:00 3.6 11 Norte 19 Norte 0 -- -- 76
2019-12-11 03:00:00 2.5 14 Norte 21 Norte 0 -- -- 85
2019-12-11 02:00:00 6.1 12 Norte 21 Noroeste 0 -- -- 69
2019-12-11 01:00:00 3.8 11 Norte 16 Noroeste 0 -- -- 84
2019-12-11 00:00:00 3.5 10 Norte 20 Noroeste 0 -- -- 82
2019-12-10 23:00:00 3.6 7 Noroeste 13 Norte 0 -- -- 83
2019-12-10 22:00:00 4.4 9 Norte 15 Norte 0 -- -- 79
2019-12-10 21:00:00 8 11 Norte 29 Noroeste 0 -- -- 67
2019-12-10 20:00:00 8.5 8 Noroeste 17 Noroeste 0 -- -- 62
2019-12-10 19:00:00 10.1 6 Noroeste 18 Oeste 0 -- -- 57
2019-12-10 18:00:00 12.1 6 Oeste 17 Oeste 0 -- -- 51
2019-12-10 17:00:00 15.3 9 Noroeste 22 Oeste 0 -- -- 46
2019-12-10 16:00:00 16.8 12 Oeste 21 Oeste 0 -- -- 41
2019-12-10 15:00:00 16.4 13 Oeste 23 Oeste 0 -- -- 44
2019-12-10 14:00:00 15.2 17 Oeste 23 Oeste 0 -- -- 46
2019-12-10 13:00:00 13.5 11 Norte 23 Noroeste 0 -- -- 52
2019-12-10 12:00:00 12.2 14 Noroeste 28 Oeste 0 -- -- 57
2019-12-10 11:00:00 9.6 8 Norte 22 Noroeste 0 -- -- 63
2019-12-10 10:00:00 7.1 5 Norte 12 Norte 0 -- -- 70
2019-12-10 09:00:00 5.5 9 Norte 30 Noroeste 0 -- -- 72
2019-12-10 08:00:00 5.4 17 Oeste 29 Oeste 0 -- -- 73
2019-12-10 07:00:00 5.1 15 Oeste 24 Oeste 0 -- -- 75
2019-12-10 06:00:00 5.8 13 Oeste 24 Noroeste 0 -- -- 73
2019-12-10 05:00:00 6.5 15 Noroeste 32 Oeste 0 -- -- 73
2019-12-10 04:00:00 7.4 20 Oeste 35 Oeste 0 -- -- 68
2019-12-10 03:00:00 7.8 19 Oeste 31 Oeste 0 -- -- 63
2019-12-10 02:00:00 6.6 8 Noroeste 23 Oeste 0 -- -- 63
2019-12-10 01:00:00 8.8 15 Noroeste 26 Noroeste 0 -- -- 59
2019-12-10 00:00:00 7.5 5 Norte 14 Noroeste 0 -- -- 66
2019-12-09 23:00:00 8 10 Norte 19 Noroeste 0 -- -- 69
2019-12-09 22:00:00 8.7 11 Noroeste 18 Noroeste 0 -- -- 66
2019-12-09 21:00:00 9.4 9 Noroeste 21 Oeste 0 -- -- 64
2019-12-09 20:00:00 10.1 9 Noroeste 26 Oeste 0 -- -- 62
2019-12-09 19:00:00 11.8 18 Noroeste 31 Noroeste 0 -- -- 57
2019-12-09 18:00:00 12.3 12 Noroeste 32 Oeste 0 -- -- 57
2019-12-09 17:00:00 14.9 22 Oeste 35 Oeste 0 -- -- 50
2019-12-09 16:00:00 16.2 20 Oeste 39 Oeste 0 -- -- 47
2019-12-09 15:00:00 15.9 30 Oeste 46 Noroeste 0 -- -- 51
2019-12-09 14:00:00 15.8 25 Noroeste 41 Oeste 0 -- -- 52
2019-12-09 13:00:00 14.8 22 Oeste 34 Oeste 0 -- -- 60
2019-12-09 12:00:00 13.3 21 Oeste 33 Oeste 0 -- -- 65
2019-12-09 11:00:00 11.5 22 Oeste 36 Oeste 0 -- -- 75
2019-12-09 10:00:00 9.6 16 Oeste 33 Oeste 0 -- -- 84
2019-12-09 09:00:00 8.7 15 Noroeste 27 Oeste 0 -- -- 86
2019-12-09 08:00:00 7.7 9 Noroeste 23 Noroeste 0 -- -- 89
2019-12-09 07:00:00 7.1 3 Noroeste 21 Noroeste 0 -- -- 90
2019-12-09 06:00:00 8.1 9 Noroeste 29 Oeste 0 -- -- 88
2019-12-09 05:00:00 9.5 17 Noroeste 31 Oeste 0 -- -- 87
2019-12-09 04:00:00 9.9 13 Oeste 35 Oeste 0 -- -- 85
2019-12-09 03:00:00 10.4 26 Oeste 35 Oeste 0 -- -- 82
2019-12-09 02:00:00 10.7 21 Oeste 32 Oeste 0 -- -- 82
2019-12-09 01:00:00 10.6 24 Oeste 36 Oeste 0 -- -- 82
2019-12-09 00:00:00 11.1 11 Oeste 31 Noroeste 0 -- -- 77
2019-12-08 23:00:00 11 15 Noroeste 26 Noroeste 0 -- -- 76
2019-12-08 22:00:00 10.3 8 Sudoeste 17 Oeste 0 -- -- 80
2019-12-08 21:00:00 11 11 Oeste 36 Oeste 0 -- -- 80
2019-12-08 20:00:00 10.6 16 Oeste 31 Oeste 0 -- -- 82
2019-12-08 19:00:00 10.4 11 Oeste 17 Noroeste 0 -- -- 76
2019-12-08 18:00:00 12.5 12 Noroeste 20 Noroeste 0 -- -- 65
2019-12-08 17:00:00 15 15 Noroeste 23 Oeste 0 -- -- 58
2019-12-08 16:00:00 16.3 15 Oeste 31 Oeste 0 -- -- 56
2019-12-08 15:00:00 16.4 17 Oeste 30 Oeste 0 -- -- 56
2019-12-08 14:00:00 15.9 16 Oeste 30 Oeste 0 -- -- 56
2019-12-08 13:00:00 15 17 Oeste 30 Oeste 0 -- -- 65
2019-12-08 12:00:00 12.4 7 Norte 14 Norte 0 -- -- 76
2019-12-08 11:00:00 10 8 Norte 15 Nordeste 0 -- -- 87
2019-12-08 10:00:00 6.5 9 Norte 15 Norte 0 -- -- 99
2019-12-08 09:00:00 3.4 4 Norte 9 Noroeste 0 -- -- 99
2019-12-08 08:00:00 2 5 Noroeste 12 Norte 0 -- -- 99
2019-12-08 07:00:00 1.8 7 Noroeste 11 Noroeste 0 -- -- 99
2019-12-08 06:00:00 1.9 7 Norte 10 Norte 0 -- -- 98
2019-12-08 05:00:00 1.7 8 Noroeste 14 Norte 0 -- -- 98
2019-12-08 04:00:00 1.8 8 Norte 10 Norte 0 -- -- 97
2019-12-08 03:00:00 1.5 3 Norte 8 Norte 0 -- -- 97
2019-12-08 02:00:00 1.4 4 Norte 8 Norte 0 -- -- 96
2019-12-08 01:00:00 2.8 2 Nordeste 8 Noroeste 0 -- -- 96
2019-12-08 00:00:00 2.2 6 Norte 8 Norte 0 -- -- 95
2019-12-07 23:00:00 2.8 0 Calma 5 Oeste 0 -- -- 94
2019-12-07 22:00:00 3.5 2 Noroeste 4 Sudoeste 0 -- -- 92
2019-12-07 21:00:00 5.4 0 Calma 2 Sur 0 -- -- 91
2019-12-07 20:00:00 7.2 0 Calma 9 Sudeste 0 -- -- 88
2019-12-07 19:00:00 9.2 8 Sudeste 14 Sudeste 0 -- -- 86
2019-12-07 18:00:00 11.8 9 Este 13 Este 0 -- -- 77
2019-12-07 17:00:00 15.5 0 Calma 6 Norte 0 -- -- 62
2019-12-07 16:00:00 15.6 4 Norte 10 Noroeste 0 -- -- 59
2019-12-07 15:00:00 15.1 6 Noroeste 11 Norte 0 -- -- 63
2019-12-07 14:00:00 13.9 7 Norte 14 Nordeste 0 -- -- 76
2019-12-07 13:00:00 11.7 3 Norte 7 Norte 0 -- -- 91
2019-12-07 12:00:00 8.8 4 Norte 9 Norte 0 -- -- 98
2019-12-07 11:00:00 7.3 6 Norte 10 Noroeste 0 -- -- 99
2019-12-07 10:00:00 5.1 4 Norte 9 Norte 0 -- -- 99
2019-12-07 09:00:00 3.2 2 Norte 11 Norte 0 -- -- 99
2019-12-07 08:00:00 3 9 Norte 11 Noroeste 0 -- -- 99
2019-12-07 07:00:00 2.7 8 Noroeste 14 Noroeste 0 -- -- 98
2019-12-07 06:00:00 2.9 9 Noroeste 12 Norte 0 -- -- 98
2019-12-07 05:00:00 2.8 6 Norte 9 Norte 0 -- -- 98
2019-12-07 04:00:00 2.9 4 Noroeste 9 Noroeste 0 -- -- 98
2019-12-07 03:00:00 2.4 6 Norte 8 Norte 0 -- -- 97
2019-12-07 02:00:00 2.9 0 Calma 4 Norte 0 -- -- 96
2019-12-07 01:00:00 3.4 4 Noroeste 6 Noroeste 0 -- -- 95
2019-12-07 00:00:00 3.8 5 Norte 7 Norte 0 -- -- 94
2019-12-06 23:00:00 5.1 0 Calma 5 Noroeste 0 -- -- 94
2019-12-06 22:00:00 6.7 3 Noroeste 12 Norte 0 -- -- 92
2019-12-06 21:00:00 8.3 8 Norte 13 Noroeste 0 -- -- 93
2019-12-06 20:00:00 8.4 9 Norte 23 Norte 0 -- -- 92
2019-12-06 19:00:00 9.3 15 Nordeste 23 Nordeste 0 -- -- 90
2019-12-06 18:00:00 10.7 9 Nordeste 19 Norte 0 -- -- 86
2019-12-06 17:00:00 12 13 Norte 26 Nordeste 0 -- -- 83
2019-12-06 16:00:00 12.2 16 Nordeste 24 Norte 0 -- -- 81
2019-12-06 15:00:00 12.6 14 Norte 23 Norte 0 -- -- 79
2019-12-06 14:00:00 12.9 14 Norte 27 Norte 0 -- -- 77
2019-12-06 13:00:00 13.5 17 Norte 27 Norte 0 -- -- 76
2019-12-06 12:00:00 12.9 14 Norte 22 Nordeste 0 -- -- 78
2019-12-06 11:00:00 12 15 Norte 24 Norte 0 -- -- 82
2019-12-06 10:00:00 10.1 9 Noroeste 16 Noroeste 0 -- -- 92
2019-12-06 09:00:00 7.3 10 Noroeste 14 Norte 0 -- -- 96
2019-12-06 08:00:00 7.1 10 Noroeste 15 Noroeste 0 -- -- 97
2019-12-06 07:00:00 7 6 Noroeste 16 Noroeste 0 -- -- 96
2019-12-06 06:00:00 7.7 9 Noroeste 16 Norte 0 -- -- 96
2019-12-06 05:00:00 7.4 9 Norte 15 Norte 0 -- -- 96
2019-12-06 04:00:00 8.3 5 Norte 12 Norte 0 -- -- 96
2019-12-06 03:00:00 8.9 9 Norte 15 Norte 0 -- -- 96
2019-12-06 02:00:00 8.5 5 Noroeste 12 Norte 0 -- -- 96
2019-12-06 01:00:00 7.5 6 Norte 9 Norte 0 -- -- 96
2019-12-06 00:00:00 7.9 3 Norte 9 Noroeste 0 -- -- 95
2019-12-05 23:00:00 8.4 5 Norte 11 Norte 0 -- -- 94
2019-12-05 22:00:00 8.3 8 Norte 15 Norte 0 -- -- 93
2019-12-05 21:00:00 8 9 Noroeste 20 Norte 0 -- -- 92
2019-12-05 20:00:00 9.2 12 Norte 26 Nordeste 0 -- -- 88
2019-12-05 19:00:00 9.9 15 Nordeste 22 Nordeste 0 -- -- 88
2019-12-05 18:00:00 10.4 10 Nordeste 25 Nordeste 0 -- -- 83
2019-12-05 17:00:00 11.3 15 Nordeste 26 Nordeste 0 -- -- 80
2019-12-05 16:00:00 11.8 9 Norte 22 Nordeste 0 -- -- 83
2019-12-05 15:00:00 11.6 13 Nordeste 21 Nordeste 0 -- -- 84
2019-12-05 14:00:00 12.1 12 Nordeste 17 Nordeste 0 -- -- 82
2019-12-05 13:00:00 11.6 9 Nordeste 16 Norte 0 -- -- 83
2019-12-05 12:00:00 12.9 7 Norte 13 Norte 0 -- -- 79
2019-12-05 11:00:00 11.6 6 Norte 13 Nordeste 0 -- -- 87
2019-12-05 10:00:00 9 4 Noroeste 9 Noroeste 0 -- -- 97
2019-12-05 09:00:00 7.3 6 Noroeste 12 Noroeste 0.2 -- -- 97
2019-12-05 08:00:00 6.2 7 Noroeste 11 Norte 0 -- -- 96
2019-12-05 07:00:00 6 5 Norte 6 Norte 0 -- -- 96
2019-12-05 06:00:00 6.7 3 Norte 4 Norte 0 -- -- 94
2019-12-05 05:00:00 7.2 3 Nordeste 13 Oeste 0.2 -- -- 93
2019-12-05 04:00:00 7.7 5 Oeste 12 Oeste 0.2 -- -- 92
2019-12-05 03:00:00 7.8 3 Noroeste 17 Oeste 0.2 -- -- 93
2019-12-05 02:00:00 8 11 Noroeste 16 Oeste 0 -- -- 93
2019-12-05 01:00:00 7.9 7 Noroeste 12 Oeste 0 -- -- 94
2019-12-05 00:00:00 7.8 2 Norte 8 Noroeste 0 -- -- 94
2019-12-04 23:00:00 7.8 2 Noroeste 9 Noroeste 0 -- -- 94
2019-12-04 22:00:00 7.8 2 Noroeste 7 Norte 0 -- -- 94
2019-12-04 21:00:00 7.2 4 Noroeste 8 Oeste 0 -- -- 95
2019-12-04 20:00:00 6.7 4 Oeste 8 Norte 0 -- -- 93
2019-12-04 19:00:00 8 4 Noroeste 10 Oeste 0 -- -- 91
2019-12-04 18:00:00 9.1 5 Noroeste 9 Oeste 0 -- -- 89
2019-12-04 17:00:00 9.9 6 Noroeste 13 Noroeste 0 -- -- 86
2019-12-04 16:00:00 9.7 5 Norte 11 Norte 0 -- -- 87
2019-12-04 15:00:00 9.7 6 Norte 14 Norte 0 -- -- 86
2019-12-04 14:00:00 9.1 11 Norte 22 Norte 0 -- -- 90
2019-12-04 13:00:00 8.9 12 Noroeste 23 Noroeste 0 -- -- 95
2019-12-04 12:00:00 8.6 13 Noroeste 21 Noroeste 0.2 -- -- 94
2019-12-04 11:00:00 8.5 15 Noroeste 26 Noroeste 0.2 -- -- 95
2019-12-04 10:00:00 8.9 9 Norte 23 Norte 0 -- -- 94
2019-12-04 09:00:00 8.7 13 Norte 25 Nordeste 0.4 -- -- 94
2019-12-04 08:00:00 9 14 Noroeste 27 Norte 0.8 -- -- 93
2019-12-04 07:00:00 9.4 16 Norte 31 Norte 0.4 -- -- 93
2019-12-04 06:00:00 9.4 17 Norte 41 Norte 1.6 -- -- 93
2019-12-04 05:00:00 9.7 21 Norte 46 Norte 1 -- -- 92
2019-12-04 04:00:00 9.7 24 Norte 57 Norte 0 -- -- 91
2019-12-04 03:00:00 9.5 18 Norte 41 Norte 0 -- -- 92
2019-12-04 02:00:00 8.9 17 Noroeste 26 Norte 0 -- -- 93
2019-12-04 01:00:00 7.7 9 Norte 27 Norte 0 -- -- 93
2019-12-04 00:00:00 7.5 9 Noroeste 23 Noroeste 0.2 -- -- 91
2019-12-03 23:00:00 7 6 Norte 31 Norte 0 -- -- 92
2019-12-03 22:00:00 6.5 17 Norte 37 Norte 0.6 -- -- 92
2019-12-03 21:00:00 6.9 19 Norte 39 Norte 0 -- -- 90
2019-12-03 20:00:00 7.1 22 Norte 46 Norte 0 -- -- 88
2019-12-03 19:00:00 7.1 25 Norte 45 Norte 0 -- -- 91
2019-12-03 18:00:00 7.1 30 Norte 47 Norte 0.8 -- -- 93
2019-12-03 17:00:00 8 23 Norte 41 Norte 0 -- -- 88
2019-12-03 16:00:00 8.9 20 Nordeste 45 Norte 0 -- -- 80
2019-12-03 15:00:00 8.6 23 Nordeste 39 Nordeste 0 -- -- 89
2019-12-03 14:00:00 8.1 23 Norte 41 Nordeste 0 -- -- 91
2019-12-03 13:00:00 8.5 23 Norte 39 Norte 0 -- -- 89
2019-12-03 12:00:00 8.9 21 Nordeste 35 Nordeste 0 -- -- 89
2019-12-03 11:00:00 9.7 21 Nordeste 33 Nordeste 0 -- -- 86
2019-12-03 10:00:00 9.7 10 Norte 28 Nordeste 0 -- -- 82
2019-12-03 09:00:00 9.3 13 Nordeste 36 Nordeste 0 -- -- 82
2019-12-03 08:00:00 9 10 Norte 23 Nordeste 0 -- -- 83
2019-12-03 07:00:00 8.9 11 Norte 27 Nordeste 0 -- -- 83
2019-12-03 06:00:00 8.9 12 Norte 30 Nordeste 0 -- -- 82
2019-12-03 05:00:00 8.7 12 Norte 26 Nordeste 0 -- -- 87
2019-12-03 04:00:00 9 13 Nordeste 25 Nordeste 0 -- -- 87
2019-12-03 03:00:00 8.8 10 Norte 20 Nordeste 0.4 -- -- 91
2019-12-03 02:00:00 8.4 7 Oeste 24 Nordeste 2 -- -- 91
2019-12-03 01:00:00 8.8 10 Nordeste 30 Nordeste 0.6 -- -- 94
2019-12-03 00:00:00 9.5 10 Nordeste 27 Norte 1 -- -- 94
2019-12-02 23:00:00 9.9 10 Norte 26 Nordeste 0.6 -- -- 95
2019-12-02 22:00:00 9.7 10 Norte 22 Nordeste 0.8 -- -- 96
2019-12-02 21:00:00 10 8 Norte 13 Norte 3.2 -- -- 95
2019-12-02 20:00:00 10.1 0 Calma 14 Nordeste 1 -- -- 93
2019-12-02 19:00:00 10.3 12 Norte 24 Norte 0 -- -- 91
2019-12-02 18:00:00 10.3 13 Nordeste 28 Nordeste 0 -- -- 90
2019-12-02 17:00:00 10.9 12 Nordeste 26 Nordeste 0 -- -- 87
2019-12-02 16:00:00 11.1 17 Nordeste 34 Nordeste 0 -- -- 86
2019-12-02 15:00:00 10.7 20 Norte 42 Nordeste 0 -- -- 87
2019-12-02 14:00:00 11 25 Nordeste 40 Nordeste 0 -- -- 87
2019-12-02 13:00:00 10.5 22 Nordeste 42 Nordeste 0 -- -- 87
2019-12-02 12:00:00 10.1 22 Nordeste 36 Norte 0 -- -- 87
2019-12-02 11:00:00 9.2 24 Nordeste 45 Nordeste 0 -- -- 88
2019-12-02 10:00:00 8.9 17 Norte 40 Norte 0 -- -- 89
2019-12-02 09:00:00 9.1 22 Norte 38 Norte 0 -- -- 90
2019-12-02 08:00:00 8.6 17 Nordeste 33 Norte 0.2 -- -- 93
2019-12-02 07:00:00 8.9 17 Nordeste 33 Norte 0 -- -- 94
2019-12-02 06:00:00 8.9 16 Nordeste 27 Nordeste 0 -- -- 94
2019-12-02 05:00:00 9.2 12 Nordeste 21 Norte 1 -- -- 91
2019-12-02 04:00:00 9.2 3 Sur 12 Norte 0 -- -- 83
2019-12-02 03:00:00 9 3 Noroeste 15 Norte 0 -- -- 83
2019-12-02 02:00:00 9 9 Norte 15 Norte 0 -- -- 87
2019-12-02 01:00:00 8.2 10 Norte 20 Norte 0 -- -- 85
2019-12-02 00:00:00 6.2 11 Norte 15 Norte 0 -- -- 89
2019-12-01 23:00:00 3.8 3 Noroeste 5 Oeste 0 -- -- 89
2019-12-01 22:00:00 5.3 4 Sudoeste 6 Norte 0 -- -- 85
2019-12-01 21:00:00 6.5 0 Calma 5 Norte 0 -- -- 85
2019-12-01 20:00:00 6.6 2 Noroeste 9 Sur 0 -- -- 82
2019-12-01 19:00:00 8.9 3 Sudoeste 8 Sur 0 -- -- 70
2019-12-01 18:00:00 10.8 4 Nordeste 7 Norte 0 -- -- 63
2019-12-01 17:00:00 13.7 6 Norte 12 Norte 0 -- -- 56
2019-12-01 16:00:00 15.4 6 Noroeste 15 Norte 0 -- -- 52
2019-12-01 15:00:00 16.3 9 Oeste 22 Noroeste -- -- -- 50
2019-12-01 14:00:00 15.7 11 Oeste 23 Oeste 0 -- -- 52
2019-12-01 13:00:00 15.4 14 Noroeste 28 Noroeste 0 -- -- 53
2019-12-01 12:00:00 14 14 Noroeste 27 Oeste 0 -- -- 58
2019-12-01 11:00:00 13.7 14 Noroeste 23 Noroeste 0 -- -- 69
2019-12-01 10:00:00 10.4 6 Noroeste 11 Noroeste 0 -- -- 91
2019-12-01 09:00:00 8 8 Norte 14 Noroeste 0 -- -- 97
2019-12-01 08:00:00 5.6 11 Noroeste 14 Norte 0 -- -- 97
2019-12-01 07:00:00 2.5 4 Noroeste 5 Noroeste 0 -- -- 96
2019-12-01 06:00:00 2.8 3 Sudoeste 8 Nordeste 0 -- -- 96
2019-12-01 05:00:00 3.3 3 Sudoeste 5 Sur 0 -- -- 95
2019-12-01 04:00:00 4.2 0 Calma 9 Norte 0 -- -- 95
2019-12-01 03:00:00 5.7 2 Oeste 11 Norte 0 -- -- 94
2019-12-01 02:00:00 5.2 5 Norte 12 Norte 0 -- -- 96
2019-12-01 01:00:00 6.3 4 Noroeste 10 Noroeste 0 -- -- 93
2019-12-01 00:00:00 7.3 7 Noroeste 16 Noroeste 0 -- -- 91
2019-11-30 23:00:00 9.5 5 Norte 13 Noroeste 0 -- -- 85
2019-11-30 22:00:00 10.8 7 Noroeste 25 Oeste 0 -- -- 86
2019-11-30 21:00:00 8.5 3 Sudoeste 10 Sudeste 0 -- -- 83
2019-11-30 20:00:00 11.2 8 Sur 15 Sudeste 0 -- -- 79
2019-11-30 19:00:00 13.2 10 Sudeste 18 Sudeste 0 -- -- 74
2019-11-30 18:00:00 15.6 15 Sudeste 22 Sudeste 0 -- -- 66
2019-11-30 17:00:00 19 8 Sur 21 Sur 0 -- -- 51
2019-11-30 16:00:00 20.3 13 Sur 17 Sur 0 -- -- 50
2019-11-30 15:00:00 20.5 0 Calma 10 Sur 0 -- -- 52
2019-11-30 14:00:00 19.8 4 Sudoeste 16 Noroeste 0 -- -- 54
2019-11-30 13:00:00 17.9 7 Noroeste 13 Oeste 0 -- -- 59
2019-11-30 12:00:00 16.3 11 Noroeste 23 Noroeste 0 -- -- 67
2019-11-30 11:00:00 13.6 5 Noroeste 8 Noroeste 0 -- -- 84
2019-11-30 10:00:00 9.1 2 Norte 8 Este 0 -- -- 97
2019-11-30 09:00:00 6.9 6 Norte 12 Norte 0 -- -- 98
2019-11-30 08:00:00 5.5 3 Norte 13 Norte 0 -- -- 96
2019-11-30 07:00:00 4.9 8 Noroeste 10 Norte 0 -- -- 97
2019-11-30 06:00:00 5.7 5 Este 9 Norte 0 -- -- 95
2019-11-30 05:00:00 6.6 8 Norte 12 Norte 0 -- -- 96
2019-11-30 04:00:00 7.3 6 Norte 10 Noroeste 0 -- -- 95
2019-11-30 03:00:00 8 8 Norte 13 Norte 0 -- -- 94
2019-11-30 02:00:00 8.6 9 Noroeste 11 Norte 0 -- -- 94
2019-11-30 01:00:00 7.1 6 Noroeste 9 Norte 0 -- -- 92
2019-11-30 00:00:00 9.1 4 Norte 12 Norte 0 -- -- 88
2019-11-29 23:00:00 9.7 3 Norte 13 Norte 0 -- -- 88
2019-11-29 22:00:00 11.2 9 Norte 12 Noroeste 0 -- -- 86
2019-11-29 21:00:00 13.2 6 Norte 14 Norte 0 -- -- 80
2019-11-29 20:00:00 13.3 5 Norte 19 Nordeste 0 -- -- 80
2019-11-29 19:00:00 12.7 8 Noroeste 22 Noroeste 0 -- -- 80
2019-11-29 18:00:00 14.9 15 Noroeste 27 Noroeste 0 -- -- 73
2019-11-29 17:00:00 15.2 10 Norte 21 Noroeste 0 -- -- 73
2019-11-29 16:00:00 16.9 13 Noroeste 27 Noroeste 0 -- -- 66
2019-11-29 15:00:00 17 18 Noroeste 27 Noroeste 0 -- -- 66
2019-11-29 14:00:00 16.1 12 Noroeste 31 Noroeste 0 -- -- 69
2019-11-29 13:00:00 16.2 13 Noroeste 32 Noroeste 0 -- -- 68
2019-11-29 12:00:00 15.9 24 Noroeste 38 Noroeste 0 -- -- 67
2019-11-29 11:00:00 14.9 23 Noroeste 39 Oeste 0 -- -- 69
2019-11-29 10:00:00 14 22 Noroeste 35 Oeste 0 -- -- 71
2019-11-29 09:00:00 13.1 16 Oeste 29 Oeste 0 -- -- 73
2019-11-29 08:00:00 11.9 6 Norte 23 Noroeste 0 -- -- 75
2019-11-29 07:00:00 11.9 13 Noroeste 27 Oeste 0 -- -- 74
2019-11-29 06:00:00 11.6 18 Oeste 26 Noroeste 0 -- -- 74
2019-11-29 05:00:00 10.5 7 Noroeste 21 Noroeste 0 -- -- 77
2019-11-29 04:00:00 8.7 4 Nordeste 10 Norte 0 -- -- 79
2019-11-29 03:00:00 9.5 9 Norte 18 Noroeste 0 -- -- 76
2019-11-29 02:00:00 9.2 10 Noroeste 17 Noroeste 0 -- -- 78
2019-11-29 01:00:00 10.5 10 Noroeste 22 Noroeste 0 -- -- 74
2019-11-29 00:00:00 10.1 13 Noroeste 21 Noroeste 0 -- -- 77
2019-11-28 23:00:00 6.1 6 Oeste 9 Oeste 0 -- -- 88
2019-11-28 22:00:00 7.1 5 Oeste 12 Oeste 0 -- -- 88
2019-11-28 21:00:00 8.5 6 Oeste 22 Noroeste 0 -- -- 85
2019-11-28 20:00:00 9.7 13 Noroeste 22 Noroeste 0 -- -- 84
2019-11-28 19:00:00 10.4 5 Oeste 21 Oeste 0 -- -- 78
2019-11-28 18:00:00 11.9 12 Noroeste 20 Noroeste 0 -- -- 75
2019-11-28 17:00:00 13.7 12 Noroeste 24 Noroeste 0 -- -- 68
2019-11-28 16:00:00 15.2 12 Noroeste 27 Noroeste 0 -- -- 64
2019-11-28 15:00:00 15.8 13 Noroeste 28 Noroeste 0 -- -- 61
2019-11-28 14:00:00 15.7 19 Noroeste 38 Oeste 0 -- -- 60
2019-11-28 13:00:00 15.7 21 Noroeste 34 Noroeste 0 -- -- 59
2019-11-28 12:00:00 14.8 17 Noroeste 34 Oeste 0 -- -- 63
2019-11-28 11:00:00 13.2 19 Noroeste 30 Noroeste 0 -- -- 68
2019-11-28 10:00:00 12.4 11 Oeste 33 Noroeste 0 -- -- 71
2019-11-28 09:00:00 10.7 19 Noroeste 28 Noroeste 0 -- -- 77
2019-11-28 08:00:00 7.6 6 Norte 19 Norte 0 -- -- 84
2019-11-28 07:00:00 8.4 9 Norte 24 Noroeste 0 -- -- 81
2019-11-28 06:00:00 9.8 14 Noroeste 22 Noroeste 0 -- -- 76
2019-11-28 05:00:00 10.8 12 Noroeste 26 Noroeste 0 -- -- 70
2019-11-28 04:00:00 10.3 10 Noroeste 24 Oeste 0 -- -- 70
2019-11-28 03:00:00 8.7 0 Calma 16 Noroeste 0 -- -- 73
2019-11-28 02:00:00 10.1 11 Noroeste 19 Oeste 0 -- -- 73
2019-11-28 01:00:00 8.7 9 Norte 21 Noroeste 0 -- -- 83
2019-11-28 00:00:00 8.9 6 Norte 15 Noroeste 0 -- -- 83
2019-11-27 23:00:00 9.4 9 Norte 16 Noroeste 0 -- -- 81
2019-11-27 22:00:00 8.9 11 Norte 18 Noroeste 0 -- -- 79
2019-11-27 21:00:00 7.3 2 Norte 6 Noroeste 0 -- -- 78
2019-11-27 20:00:00 9.7 4 Noroeste 17 Noroeste 0 -- -- 71
2019-11-27 19:00:00 12 12 Noroeste 32 Noroeste 0 -- -- 63
2019-11-27 18:00:00 13.4 21 Noroeste 47 Noroeste 0 -- -- 56
2019-11-27 17:00:00 14.9 31 Noroeste 45 Noroeste 0 -- -- 52
2019-11-27 16:00:00 16.5 24 Noroeste 42 Noroeste 0 -- -- 54
2019-11-27 15:00:00 17.5 23 Noroeste 41 Noroeste 0 -- -- 56
2019-11-27 14:00:00 18.3 17 Noroeste 31 Noroeste 0 -- -- 56
2019-11-27 06:00:00 -- -- -- -- -- -- -- -- --
2019-11-27 05:00:00 -- -- -- -- -- -- -- -- --
2019-11-27 04:00:00 -- -- -- -- -- -- -- -- --
2019-11-27 03:00:00 -- -- -- -- -- -- -- -- --
2019-11-27 02:00:00 6.6 0 Calma 10 Noroeste 0 -- -- 95
2019-11-27 01:00:00 6.9 0 Calma 5 Este 0 -- -- 94
2019-11-27 00:00:00 7.2 2 Sur 12 Sudeste 0 -- -- 94
2019-11-26 23:00:00 6.8 2 Sur 8 Oeste 0 -- -- 93
2019-11-26 22:00:00 7.5 3 Sudeste 6 Sudeste 0 -- -- 91
2019-11-26 21:00:00 8.5 3 Sudoeste 8 Noroeste 0 -- -- 90
2019-11-26 20:00:00 10.1 0 Calma 11 Noroeste 0 -- -- 85
2019-11-26 19:00:00 12.6 2 Este 10 Noroeste 0 -- -- 80
2019-11-26 18:00:00 15.6 7 Noroeste 19 Noroeste 0 -- -- 73
2019-11-26 17:00:00 18 13 Noroeste 27 Noroeste 0 -- -- 65
2019-11-26 16:00:00 18.6 17 Noroeste 36 Noroeste 0 -- -- 64
2019-11-26 15:00:00 18.4 24 Noroeste 40 Noroeste 0 -- -- 64
2019-11-26 14:00:00 18.5 16 Noroeste 37 Oeste 0 -- -- 62
2019-11-26 13:00:00 17.6 21 Oeste 36 Noroeste 0 -- -- 63
2019-11-26 12:00:00 16.9 23 Noroeste 38 Noroeste 0 -- -- 62
2019-11-26 11:00:00 16 21 Noroeste 36 Noroeste 0 -- -- 64
2019-11-26 10:00:00 14.5 20 Noroeste 28 Noroeste 0 -- -- 67
2019-11-26 09:00:00 11.9 10 Noroeste 19 Noroeste 0 -- -- 74
2019-11-26 08:00:00 11.2 6 Noroeste 26 Noroeste 0 -- -- 75
2019-11-26 07:00:00 10.8 7 Norte 18 Noroeste 0 -- -- 77
2019-11-26 06:00:00 12 13 Noroeste 24 Oeste 0 -- -- 75
2019-11-26 05:00:00 12.3 15 Noroeste 28 Noroeste 0 -- -- 75
2019-11-26 04:00:00 11.9 5 Norte 24 Noroeste 0 -- -- 78
2019-11-26 03:00:00 10.6 4 Noroeste 10 Oeste 0 -- -- 86
2019-11-26 02:00:00 11.2 3 Sur 18 Noroeste 0 -- -- 82
2019-11-26 01:00:00 12.7 14 Noroeste 23 Noroeste 0 -- -- 79
2019-11-26 00:00:00 12.1 9 Noroeste 21 Noroeste 0 -- -- 83
2019-11-25 23:00:00 12 9 Noroeste 15 Noroeste 0 -- -- 85
2019-11-25 22:00:00 12.7 3 Nordeste 20 Oeste 0 -- -- 82
2019-11-25 21:00:00 13.6 15 Noroeste 24 Noroeste 0 -- -- 81
2019-11-25 20:00:00 14.5 12 Noroeste 31 Oeste 0 -- -- 76
2019-11-25 19:00:00 14.5 18 Noroeste 28 Oeste 0 -- -- 75
2019-11-25 18:00:00 14.9 12 Noroeste 28 Noroeste 0 -- -- 75
2019-11-25 17:00:00 15.7 15 Noroeste 45 Noroeste 0 -- -- 71
2019-11-25 16:00:00 16.4 27 Noroeste 44 Noroeste 0 -- -- 68
2019-11-25 15:00:00 18 22 Noroeste 39 Noroeste 0 -- -- 64
2019-11-25 14:00:00 16.9 14 Noroeste 33 Noroeste 0 -- -- 69
2019-11-25 13:00:00 15.8 14 Noroeste 33 Noroeste 0 -- -- 70
2019-11-25 12:00:00 15.2 14 Noroeste 25 Noroeste 0 -- -- 70
2019-11-25 11:00:00 14.3 4 Norte 20 Norte 0 -- -- 69
2019-11-25 10:00:00 11.7 10 Norte 16 Nordeste 0 -- -- 77
2019-11-25 09:00:00 10.3 14 Nordeste 21 Norte 0 -- -- 80
2019-11-25 08:00:00 9.4 4 Noroeste 10 Nordeste 0 -- -- 82
2019-11-25 07:00:00 9.3 5 Norte 15 Nordeste 0 -- -- 80
2019-11-25 06:00:00 9.4 6 Sudeste 19 Nordeste 0 -- -- 80
2019-11-25 05:00:00 10.1 8 Este 16 Noroeste 0 -- -- 77
2019-11-25 04:00:00 9.6 10 Noroeste 36 Noroeste 0 -- -- 78
2019-11-25 03:00:00 9.7 25 Noroeste 48 Noroeste 0 -- -- 77
2019-11-25 02:00:00 8.9 11 Oeste 23 Noroeste 0 -- -- 79
2019-11-25 01:00:00 8.3 10 Noroeste 20 Oeste 0 -- -- 77
2019-11-25 00:00:00 8.4 10 Oeste 26 Oeste 0 -- -- 73
2019-11-24 23:00:00 9 4 Nordeste 39 Noroeste 0 -- -- 70
2019-11-24 22:00:00 9.4 20 Noroeste 44 Noroeste 0 -- -- 69
2019-11-24 21:00:00 9.3 29 Noroeste 43 Oeste 0 -- -- 69
2019-11-24 20:00:00 8.9 23 Noroeste 36 Noroeste 0 -- -- 69
2019-11-24 19:00:00 9.2 14 Noroeste 33 Oeste 0 -- -- 67
2019-11-24 18:00:00 10.2 15 Oeste 28 Oeste 0 -- -- 60
2019-11-24 17:00:00 11.9 14 Noroeste 43 Noroeste 0 -- -- 52
2019-11-24 16:00:00 12.8 23 Noroeste 46 Noroeste 0 -- -- 51
2019-11-24 15:00:00 12.4 22 Oeste 37 Oeste 0 -- -- 56
2019-11-24 14:00:00 12.9 21 Oeste 39 Oeste 0 -- -- 54
2019-11-24 13:00:00 11.8 22 Noroeste 33 Oeste 0 -- -- 60
2019-11-24 12:00:00 12.4 18 Oeste 35 Oeste 0 -- -- 57
2019-11-24 11:00:00 11.3 22 Oeste 32 Oeste 0 -- -- 63
2019-11-24 10:00:00 9.5 15 Oeste 26 Oeste 0 -- -- 66
2019-11-24 09:00:00 7.3 11 Noroeste 35 Oeste 0 -- -- 73
2019-11-24 08:00:00 6.4 22 Noroeste 32 Noroeste 0 -- -- 76
2019-11-24 07:00:00 6.5 15 Norte 35 Noroeste 0 -- -- 73
2019-11-24 06:00:00 7.2 25 Noroeste 40 Noroeste 0 -- -- 71
2019-11-24 05:00:00 7.3 26 Noroeste 49 Oeste 0 -- -- 71
2019-11-24 04:00:00 7.9 35 Noroeste 53 Noroeste 0 -- -- 68
2019-11-24 03:00:00 8.2 31 Noroeste 50 Oeste 0 -- -- 66
2019-11-24 02:00:00 8.4 28 Noroeste 46 Noroeste 0 -- -- 65
2019-11-24 01:00:00 8.6 18 Noroeste 40 Noroeste 0 -- -- 65
2019-11-24 00:00:00 9 25 Noroeste 47 Noroeste 0 -- -- 64
2019-11-23 23:00:00 9.3 23 Oeste 54 Oeste 0 -- -- 64
2019-11-23 22:00:00 9.8 32 Noroeste 50 Oeste 0 -- -- 63
2019-11-23 21:00:00 9.7 39 Oeste 62 Oeste 0 -- -- 65
2019-11-23 20:00:00 10 31 Oeste 48 Oeste 0 -- -- 64
2019-11-23 19:00:00 10.6 36 Noroeste 58 Noroeste 0 -- -- 60
2019-11-23 18:00:00 10.9 34 Noroeste 58 Noroeste 0 -- -- 59
2019-11-23 17:00:00 12 33 Noroeste 56 Noroeste 0 -- -- 52
2019-11-23 16:00:00 12.4 30 Noroeste 59 Noroeste 0 -- -- 54
2019-11-23 15:00:00 12.3 41 Noroeste 62 Noroeste 0 -- -- 53
2019-11-23 14:00:00 12.1 30 Noroeste 61 Noroeste 0 -- -- 55
2019-11-23 13:00:00 11.8 40 Noroeste 71 Noroeste 0 -- -- 56
2019-11-23 12:00:00 12.3 40 Noroeste 72 Oeste 0 -- -- 58
2019-11-23 11:00:00 11.1 43 Noroeste 71 Noroeste 0 -- -- 63
2019-11-23 10:00:00 11.4 30 Noroeste 51 Noroeste 0 -- -- 62
2019-11-23 09:00:00 10.9 14 Noroeste 47 Oeste 0 -- -- 64
2019-11-23 08:00:00 9.2 30 Oeste 48 Oeste 0 -- -- 69
2019-11-23 07:00:00 8.9 19 Oeste 39 Oeste 0 -- -- 76
2019-11-23 06:00:00 8.9 27 Oeste 63 Oeste 0 -- -- 78
2019-11-23 05:00:00 9.2 18 Oeste 31 Oeste 0 -- -- 79
2019-11-23 04:00:00 8.6 10 Oeste 28 Sudoeste 0 -- -- 83
2019-11-23 03:00:00 8.8 7 Sur 15 Sudeste 0 -- -- 93
2019-11-23 02:00:00 9.1 8 Sudeste 14 Sudeste 0 -- -- 93
2019-11-23 01:00:00 9.6 5 Sudeste 12 Sudeste 0 -- -- 94
2019-11-23 00:00:00 10.6 5 Oeste 21 Sur 0 -- -- 95
2019-11-22 23:00:00 11.2 12 Sudeste 32 Sur 0 -- -- 96
2019-11-22 22:00:00 11.1 26 Sudeste 37 Sur 0.2 -- -- 96
2019-11-22 21:00:00 11.2 23 Sudeste 31 Sudeste 1.8 -- -- 96
2019-11-22 20:00:00 11.1 18 Sudeste 31 Sudeste 1 -- -- 96
2019-11-22 19:00:00 11.4 29 Sur 39 Sur 0.2 -- -- 95
2019-11-22 18:00:00 11.4 27 Sudeste 38 Sur 0.4 -- -- 95
2019-11-22 17:00:00 11.5 28 Sur 39 Sur 0.6 -- -- 95
2019-11-22 16:00:00 11.4 28 Sudeste 42 Sudeste 0.2 -- -- 94
2019-11-22 15:00:00 11.9 32 Sur 43 Sur 0 -- -- 90
2019-11-22 14:00:00 12.1 18 Sudeste 27 Sudeste 0 -- -- 87
2019-11-22 13:00:00 11.6 17 Sudeste 34 Sudeste 0 -- -- 93
2019-11-22 12:00:00 9.5 2 Nordeste 10 Sudeste 0 -- -- 98
2019-11-22 11:00:00 7.8 3 Sudeste 9 Este 0.2 -- -- 99
2019-11-22 10:00:00 5.1 2 Este 4 Este 0 -- -- 98
2019-11-22 09:00:00 3.6 0 Calma 4 Norte 0 -- -- 98
2019-11-22 08:00:00 3 3 Noroeste 5 Noroeste 0 -- -- 98
2019-11-22 07:00:00 2.7 0 Calma 4 Noroeste 0 -- -- 97
2019-11-22 06:00:00 2.9 0 Calma 5 Norte 0 -- -- 97
2019-11-22 05:00:00 3.1 5 Norte 6 Norte 0 -- -- 97
2019-11-22 04:00:00 3.4 3 Sudoeste 7 Oeste 0 -- -- 95
2019-11-22 03:00:00 4.4 0 Calma 5 Oeste 0 -- -- 95
2019-11-22 02:00:00 5.8 2 Oeste 5 Nordeste 0 -- -- 94
2019-11-22 01:00:00 6.9 3 Sudoeste 5 Sudeste 0 -- -- 93
2019-11-22 00:00:00 8.2 3 Sudoeste 7 Sur 0 -- -- 92
2019-11-21 23:00:00 8.8 4 Sur 9 Sudeste 0 -- -- 92
2019-11-21 22:00:00 9.1 3 Sur 8 Sudeste 0.8 -- -- 91
2019-11-21 21:00:00 9.3 5 Sudeste 9 Sudeste 0 -- -- 88
2019-11-21 20:00:00 9.5 6 Sudeste 10 Sudeste 0 -- -- 86
2019-11-21 19:00:00 9.8 5 Sur 13 Sudeste 0 -- -- 83
2019-11-21 18:00:00 10.8 9 Sudeste 14 Sur 0 -- -- 79
2019-11-21 17:00:00 12.2 8 Sudeste 13 Sudeste 0 -- -- 72
2019-11-21 16:00:00 12.6 6 Sudeste 12 Sudeste 0 -- -- 71
2019-11-21 15:00:00 12 5 Sudeste 9 Sudeste 0 -- -- 75
2019-11-21 14:00:00 10.7 6 Sudeste 10 Sudeste 0 -- -- 82
2019-11-21 13:00:00 9.6 4 Sudeste 5 Sudeste 0 -- -- 94
2019-11-21 12:00:00 7.6 0 Calma 5 Oeste 0 -- -- 97
2019-11-21 11:00:00 6.2 0 Calma 4 Nordeste 0 -- -- 97
2019-11-21 10:00:00 4.6 0 Calma 5 Sudoeste 0 -- -- 98
2019-11-21 09:00:00 1.5 0 Calma 5 Sudoeste 0 -- -- 97
2019-11-21 08:00:00 -- -- -- -- -- -- -- -- --
2019-11-21 07:00:00 -- -- -- -- -- -- -- -- --
2019-11-21 06:00:00 -- -- -- -- -- -- -- -- --
2019-11-21 05:00:00 -- -- -- -- -- -- -- -- --
2019-11-21 04:00:00 -- -- -- -- -- -- -- -- --
2019-11-21 03:00:00 -- -- -- -- -- -- -- -- --
2019-11-21 02:00:00 -- -- -- -- -- -- -- -- --
2019-11-21 01:00:00 -- -- -- -- -- -- -- -- --
2019-11-21 00:00:00 -- -- -- -- -- -- -- -- --
2019-11-20 23:00:00 -- -- -- -- -- -- -- -- --
2019-11-20 22:00:00 -- -- -- -- -- -- -- -- --
2019-11-20 21:00:00 -- -- -- -- -- -- -- -- --
2019-11-20 20:00:00 -- -- -- -- -- -- -- -- --
2019-11-20 19:00:00 9.7 9 Sudeste 20 Sudeste -- -- -- 82
2019-11-20 18:00:00 10.4 13 Sur 20 Sur 0 -- -- 73
2019-11-20 17:00:00 11.4 12 Sur 22 Sur 0 -- -- 60
2019-11-20 16:00:00 13.7 15 Sur 23 Sur 0 -- -- 50
2019-11-20 15:00:00 13.6 15 Sudoeste 23 Sudoeste 0 -- -- 48
2019-11-20 14:00:00 13.9 9 Sudoeste 19 Sur 0 -- -- 49
2019-11-20 13:00:00 13 3 Sur 8 Oeste 0 -- -- 52
2019-11-20 12:00:00 10.7 4 Nordeste 8 Noroeste 0 -- -- 59
2019-11-20 11:00:00 7.7 3 Norte 10 Norte 0 -- -- 73
2019-11-20 10:00:00 4.3 3 Norte 8 Norte 0 -- -- 94
2019-11-20 09:00:00 0.6 2 Noroeste 3 Noroeste 0 -- -- 96
2019-11-20 08:00:00 -1.8 0 Calma 3 Noroeste 0 -- -- 95
2019-11-20 07:00:00 -1.6 0 Calma 2 Noroeste 0 -- -- 95
2019-11-20 06:00:00 -1.2 0 Calma 6 Noroeste 0 -- -- 94
2019-11-20 05:00:00 -0.4 4 Noroeste 6 Norte 0 -- -- 94
2019-11-20 04:00:00 0.9 0 Calma 6 Noroeste 0 -- -- 94
2019-11-20 03:00:00 0.8 3 Noroeste 6 Nordeste 0 -- -- 93
2019-11-20 02:00:00 0.9 0 Calma 3 Noroeste 0 -- -- 92
2019-11-20 01:00:00 0.9 0 Calma 4 Sudeste 0 -- -- 90
2019-11-20 00:00:00 2.2 0 Calma 6 Sudeste 0 -- -- 87
2019-11-19 23:00:00 3.8 0 Calma 4 Sudeste 0 -- -- 83
2019-11-19 22:00:00 4.2 2 Sur 9 Noroeste 0 -- -- 82
2019-11-19 21:00:00 5.2 9 Noroeste 13 Noroeste 0 -- -- 81
2019-11-19 20:00:00 4.6 0 Calma 8 Este 0 -- -- 80
2019-11-19 19:00:00 5.7 7 Oeste 13 Noroeste 0 -- -- 74
2019-11-19 18:00:00 8.5 8 Noroeste 18 Oeste 0 -- -- 59
2019-11-19 17:00:00 11 14 Noroeste 27 Noroeste 0 -- -- 50
2019-11-19 16:00:00 12.4 14 Noroeste 26 Noroeste 0 -- -- 50
2019-11-19 15:00:00 12.1 18 Noroeste 29 Oeste 0 -- -- 51
2019-11-19 14:00:00 11.5 17 Noroeste 33 Noroeste 0 -- -- 52
2019-11-19 13:00:00 11.3 18 Noroeste 36 Oeste 0 -- -- 54
2019-11-19 12:00:00 10.6 19 Noroeste 32 Noroeste 0 -- -- 52
2019-11-19 11:00:00 8 10 Norte 20 Noroeste 0 -- -- 65
2019-11-19 10:00:00 6.6 11 Noroeste 25 Noroeste 0 -- -- 69
2019-11-19 09:00:00 1.6 6 Norte 11 Norte 0 -- -- 89
2019-11-19 08:00:00 -0.1 7 Norte 19 Noroeste 0 -- -- 88
2019-11-19 07:00:00 1.9 12 Noroeste 29 Oeste 0 -- -- 90
2019-11-19 06:00:00 -1.3 0 Calma 8 Noroeste 0 -- -- 92
2019-11-19 05:00:00 -0.6 5 Norte 9 Noroeste 0 -- -- 91
2019-11-19 04:00:00 1 3 Norte 12 Norte 0 -- -- 86
2019-11-19 03:00:00 3 6 Noroeste 24 Oeste -- -- -- 85
2019-11-19 02:00:00 0.6 10 Oeste 16 Oeste 0 -- -- 93
2019-11-19 01:00:00 0.2 3 Noroeste 8 Noroeste 0 -- -- 90
2019-11-19 00:00:00 1.4 7 Noroeste 11 Oeste 0 -- -- 84
2019-11-18 23:00:00 3 5 Norte 17 Noroeste 0 -- -- 79
2019-11-18 22:00:00 3 5 Noroeste 12 Noroeste 0 -- -- 82
2019-11-18 21:00:00 3.9 6 Noroeste 9 Noroeste 0 -- -- 78
2019-11-18 20:00:00 4.3 6 Noroeste 10 Noroeste 0 -- -- 78
2019-11-18 19:00:00 6.1 7 Noroeste 19 Noroeste 0 -- -- 68
2019-11-18 18:00:00 8.6 8 Noroeste 27 Noroeste 0 -- -- 63
2019-11-18 17:00:00 10.9 14 Noroeste 25 Noroeste 0 -- -- 55
2019-11-18 16:00:00 11.2 10 Noroeste 27 Noroeste 0 -- -- 56
2019-11-18 15:00:00 11.1 14 Noroeste 30 Norte -- -- -- 59
2019-11-18 14:00:00 11.9 13 Noroeste 28 Noroeste 0 -- -- 56
2019-11-18 13:00:00 12.4 13 Noroeste 23 Noroeste 0 -- -- 56
2019-11-18 12:00:00 11.5 11 Norte 23 Noroeste 0 -- -- 59
2019-11-18 11:00:00 10.7 14 Noroeste 28 Noroeste 0 -- -- 65
2019-11-18 10:00:00 8.2 14 Norte 25 Norte 0 -- -- 74
2019-11-18 09:00:00 5.8 11 Norte 20 Norte 0 -- -- 84
2019-11-18 08:00:00 5.8 8 Norte 17 Oeste 0 -- -- 89
2019-11-18 07:00:00 6.6 13 Noroeste 22 Oeste 0 -- -- 91
2019-11-18 06:00:00 6.9 14 Oeste 26 Oeste 0 -- -- 95
2019-11-18 05:00:00 6.3 6 Noroeste 10 Norte 0.2 -- -- 96
2019-11-18 04:00:00 6.9 6 Noroeste 9 Noroeste 0 -- -- 95
2019-11-18 03:00:00 7.6 4 Oeste 6 Oeste 0 -- -- 95
2019-11-18 02:00:00 8 2 Noroeste 6 Norte 0.8 -- -- 95
2019-11-18 01:00:00 8.2 2 Norte 10 Norte 4.4 -- -- 94
2019-11-18 00:00:00 8.4 5 Norte 11 Norte 2 -- -- 92
2019-11-17 23:00:00 8.9 5 Norte 7 Sudeste 1.2 -- -- 87
2019-11-17 22:00:00 10 3 Noroeste 6 Oeste 0 -- -- 72
2019-11-17 21:00:00 10 4 Oeste 13 Oeste 0 -- -- 70
2019-11-17 20:00:00 10.1 2 Norte 9 Sudoeste 0 -- -- 66
2019-11-17 19:00:00 10.4 4 Sudoeste 19 Sudoeste 0 -- -- 61
2019-11-17 18:00:00 11.5 12 Sudoeste 24 Sudoeste 0 -- -- 57
2019-11-17 17:00:00 13.3 13 Sudoeste 35 Oeste 0 -- -- 53
2019-11-17 16:00:00 14.3 18 Noroeste 32 Oeste 0 -- -- 54
2019-11-17 15:00:00 15.5 19 Oeste 33 Oeste 0 -- -- 41
2019-11-17 14:00:00 13.7 19 Oeste 35 Oeste 0 -- -- 44
2019-11-17 13:00:00 13.8 22 Noroeste 40 Oeste 0 -- -- 44
2019-11-17 12:00:00 12.3 21 Oeste 40 Noroeste 0 -- -- 48
2019-11-17 11:00:00 10.6 16 Noroeste 37 Noroeste 0 -- -- 54
2019-11-17 10:00:00 8.6 21 Noroeste 38 Noroeste 0 -- -- 59
2019-11-17 09:00:00 5.3 6 Noroeste 13 Oeste 0 -- -- 71
2019-11-17 08:00:00 0.3 5 Oeste 10 Noroeste 0 -- -- 80
2019-11-17 07:00:00 2.5 9 Noroeste 19 Noroeste 0 -- -- 74
2019-11-17 06:00:00 3.9 13 Noroeste 30 Noroeste 0 -- -- 70
2019-11-17 05:00:00 4.7 19 Noroeste 28 Oeste 0 -- -- 68
2019-11-17 04:00:00 4.4 9 Noroeste 19 Noroeste 0 -- -- 68
2019-11-17 03:00:00 5.4 15 Noroeste 26 Noroeste 0 -- -- 64
2019-11-17 02:00:00 4.3 13 Noroeste 23 Noroeste 0 -- -- 69
2019-11-17 01:00:00 4.1 6 Norte 10 Noroeste 0 -- -- 69
2019-11-17 00:00:00 4 4 Norte 12 Norte 0 -- -- 68
2019-11-16 23:00:00 5.1 8 Noroeste 35 Oeste 0 -- -- 66
2019-11-16 22:00:00 7.2 19 Noroeste 38 Noroeste 0 -- -- 59
2019-11-16 21:00:00 7.2 15 Noroeste 28 Noroeste 0 -- -- 58
2019-11-16 20:00:00 7.7 21 Noroeste 32 Noroeste 0 -- -- 56
2019-11-16 19:00:00 7.9 18 Noroeste 30 Noroeste 0 -- -- 55
2019-11-16 18:00:00 8.8 18 Noroeste 30 Oeste 0 -- -- 51
2019-11-16 17:00:00 10.8 20 Noroeste 35 Noroeste 0 -- -- 44
2019-11-16 16:00:00 11.8 22 Noroeste 38 Oeste 0 -- -- 43
2019-11-16 15:00:00 12.2 19 Noroeste 34 Noroeste 0 -- -- 45
2019-11-16 14:00:00 12.1 13 Noroeste 28 Noroeste 0 -- -- 44
2019-11-16 13:00:00 11.4 12 Noroeste 32 Noroeste 0 -- -- 47
2019-11-16 12:00:00 10.3 14 Noroeste 27 Noroeste 0 -- -- 51
2019-11-16 11:00:00 8.7 9 Norte 18 Noroeste 0 -- -- 58
2019-11-16 10:00:00 6.6 10 Oeste 21 Oeste 0 -- -- 70
2019-11-16 09:00:00 1.5 8 Noroeste 21 Oeste 0 -- -- 94
2019-11-16 08:00:00 -0.8 6 Noroeste 14 Noroeste 0 -- -- 91
2019-11-16 07:00:00 -1.6 5 Noroeste 14 Noroeste 0 -- -- 92
2019-11-16 06:00:00 -1.6 5 Noroeste 12 Noroeste 0 -- -- 90
2019-11-16 05:00:00 -0.2 8 Noroeste 12 Noroeste 0 -- -- 87
2019-11-16 04:00:00 3.2 8 Noroeste 18 Noroeste 0 -- -- 83
2019-11-16 03:00:00 2.5 6 Norte 14 Noroeste 0 -- -- 84
2019-11-16 02:00:00 3.6 8 Noroeste 21 Noroeste 0 -- -- 80
2019-11-16 01:00:00 4 13 Oeste 22 Oeste 0 -- -- 79
2019-11-16 00:00:00 3.9 4 Norte 24 Oeste 0 -- -- 78
2019-11-15 23:00:00 4.6 9 Noroeste 23 Noroeste 0 -- -- 76
2019-11-15 22:00:00 4.2 11 Noroeste 17 Oeste 0 -- -- 78
2019-11-15 21:00:00 4.8 10 Noroeste 17 Noroeste 0 -- -- 75
2019-11-15 20:00:00 5.7 10 Oeste 22 Noroeste 0 -- -- 70
2019-11-15 19:00:00 6.7 12 Noroeste 22 Noroeste 0 -- -- 65
2019-11-15 18:00:00 7.8 13 Noroeste 32 Noroeste 0 -- -- 59
2019-11-15 17:00:00 9.6 18 Noroeste 34 Oeste 0 -- -- 52
2019-11-15 16:00:00 10.5 18 Noroeste 39 Oeste 0 -- -- 49
2019-11-15 15:00:00 11.8 23 Oeste 41 Noroeste 0 -- -- 48
2019-11-15 14:00:00 10.8 23 Noroeste 40 Noroeste 0 -- -- 50
2019-11-15 13:00:00 10.5 28 Oeste 46 Noroeste 0 -- -- 51
2019-11-15 12:00:00 10.6 28 Noroeste 46 Noroeste 0 -- -- 53
2019-11-15 11:00:00 9.4 25 Oeste 44 Noroeste 0 -- -- 59
2019-11-15 10:00:00 7.7 18 Noroeste 30 Noroeste 0 -- -- 66
2019-11-15 09:00:00 5.5 4 Nordeste 16 Noroeste 0 -- -- 76
2019-11-15 08:00:00 5.2 4 Nordeste 28 Noroeste 0 -- -- 75
2019-11-15 07:00:00 6.7 20 Noroeste 35 Noroeste 0 -- -- 69
2019-11-15 06:00:00 7.3 18 Noroeste 33 Noroeste 0 -- -- 68
2019-11-15 05:00:00 7.3 17 Oeste 30 Oeste 0 -- -- 70
2019-11-15 04:00:00 7.2 13 Noroeste 27 Noroeste 0 -- -- 68
2019-11-15 03:00:00 5.9 5 Norte 37 Noroeste 0 -- -- 72
2019-11-15 02:00:00 7.5 19 Noroeste 35 Noroeste 0 -- -- 65
2019-11-15 01:00:00 8.4 21 Noroeste 42 Oeste 0 -- -- 59
2019-11-15 00:00:00 8.3 22 Oeste 36 Noroeste 0 -- -- 60